San Luis County Regional Airport
KSBP : now visible

Airfield :











YOU CAN JOIN US ON...

 
LOGIN :

Register | Disclaimer

   EN    FR    IT 

 









Legend :    VFR   Marginal VFR   IFR   Intensive IFR   Very Intensive IFR
Visi :
Ceiling :
>= 8 km
>= 3000ft
5 to 8 km
1000 to 3000 ft
1500m to 5 km
500 to 1000 ft
800 to 1500m
200 to 500 ft
< 800m
< 200 ft
Symbols :   Thunderstorms  Fog  Heavy snow  Heavy precipitations  Wind > 20 kt






- Airport Elevation : 212 ft
- IATA code : SBP


KSBP - San Luis County Regional

CURRENT METAR :
  • 030056Z 31022G28KT 10SM CLR 14/05 A3001 RMK AO2 PK WND 30028/0046 SLP163 T01390050

EXPIRED METARs :
  • 022356Z 32021G26KT 10SM CLR 16/06 A3002 RMK AO2 PK WND 32028/2321 SLP163 T01560061 10206 20156 51004

TAF KSBP
Valid from the 03 at 00:00 until the 04 at 00:00 UTC


022348Z 0300/0324 32015G25KT P6SM SKC
FM030200 32012G18KT P6SM SKC
FM030400 32008KT P6SM SKC
FM030700 VRB03KT P6SM SKC
FM031500 32006KT P6SM SKC



MET'MAP, your aeronautical weather chart ! - Copyright ORBIFLY December 2007 - Disclaimer

ORBIFLY MET'MAP TEAM :

Programming & Development : Alexandra Zaïnal
Concept & original design : Baudouin d'Aumeries
Assistance for programming : Marc-Olivier Méhu
Technical & hardware support : Manuel Goepfert

Contact : metmap@orbifly.com




SOURCES & CREDITS :

   NOAA       Earth
Advisory